Wetterdaten Diepholz (ETND)

METAR
METAR text: ETND 190649Z 00000KT 0800 FG FEW001 SCT250 08/08 Q1013 AMB Conditions at: ETND (DIEPHOLZ (GER-AF, DE) observed 0649 UTC 19 October 2017 Temperature: 8.0°C (46°F) Dewpoint: 8.0°C (46°F) [RH = 100%] Pressure (altimeter): 29.91 inches Hg (1013.0 mb) Winds: calm Visibility: 0.50 miles (0.80 km) Ceiling: at least 12,000 feet AGL Clouds: few clouds at 100 feet AGL =
scattered clouds at 25000 feet AGL Weather: FG  (fog)
Sunrise (SR) / Sunset (SS)
06:00 / 16:22 UTC

Wetterdaten Bremen (EDDW)

METAR
METAR text: EDDW 190650Z 11006KT 1800 BR OVC001 09/09 Q1013 TEMPO 0900 FG Conditions at: EDDW (BREMEN , DE) observed 0650 UTC 19 October 2017 Temperature: 9.0°C (48°F) Dewpoint: 9.0°C (48°F) [RH = 100%] Pressure (altimeter): 29.91 inches Hg (1013.0 mb) Winds: from the ESE (110 degrees) at 7 MPH (6 knots; 3.1 m/s) Visibility: 1.12 miles (1.80 km) Ceiling: 100 feet AGL Clouds: overcast cloud deck at 100 feet AGL Weather: BR  (mist)
Quelle: ADDS

Piloteninformation

Name

Militärflugplatz und Verkehrslandeplatz Diepholz

ICAO-CODE

ETND

Lage/Position

1,5 NM SW Diepholz

Koordinaten/Coordinates

52 35, 13 N / 08 20, 44 E

Zeit/Time

UTC+1 (Sommerzeit/DST UTC+2)

Höhe über Grund/Elevation

39 m/127 ft

Öffnungszeiten/OPR HRS

Sommerzeit

07:00 UTC - 18:00 UTC OT PPR

Winterzeit

08:00 UTC - SS+30 OT PPR

Kontrollzone/CTR

HX

Diepholz Info

+49 (0)5441 / 4426, 927400, Fax 4425

Piste/RWY

08/26

Länge, Breite/Dimensions

08/26 1.283m, 45m ASPH

Verfügbare Startlauf-, Landestrecke/TORA, LDA

08/26 1.283 m

Betriebsarten/Operation Cat.

Sichtflug (VFR), Sichtflug bei Nacht (NVFR)

Rufzeichen/Call sign

Diepholz Info 122.600 GE

zu anderen Zeiten/other times
(bei militärischer Öffnungszeit)
Diepholz Turm/Tower 122.100 EN/GE

Frequenz/Frequency

Diepholz Info 122.600 GE

zu anderen Zeiten/other times
122.100 EN/GE

Navigationshilfen/NAV Aids

006°/23 NM from OSN 114.30 - 268°/38 NM from NIE 116.50

Fluginformationsdienst/FIS

Bremen Information 119.825

Flugberatungsdienst/AIS

 +49 (0)69 / 78072500

Flugwetterberatung/MET

0900 1 077221

Flugwettervorhersage/GAFOR

7

Luftfahrzeuge/ACFT

Flugzeuge bis 5.700 kg MTOW
Hubschrauber (HEL) bis 5.700 kg MTOW
Motorsegler (TMG)
Ultraleichtflugzeuge (UL)
Segelflugzeuge (GLD)
Ballons und Luftschiffe (BA)
Fallschirmspringer (PJE)

andere/others PPR

Kraftstoffe/Fuel

JetA1, AVGAS100LL, SUPER+ (plus)

Öl/Oil

15W50

Platzrunde/TFC PAT

 S 1000

Hangar/HNGR

 auf Anfrage/on request

Bemerkungen/Remarks

SAT, SUN, HOL: Segelflugzeuge/GLD im Nordbereich/in northern area
Wohngebiete meiden/avoid residential areas.

 

Copyright © 2017 Flugplatz Diepholz-Dümmerland

© 2017 Flugplatz Diepholz-Dümmerland